createdAt,value
2023-02-26T00:03:19.897Z,7.17
2023-02-26T00:07:18.964Z,8.17
2023-02-26T00:11:16.974Z,8.67
2023-02-26T00:15:14.873Z,8.91
2023-02-26T00:19:14.971Z,9.40
2023-02-26T00:23:12.950Z,9.43
2023-02-26T00:27:10.842Z,8.12
2023-02-26T00:31:09.025Z,6.59
2023-02-26T00:35:06.853Z,6.47
2023-02-26T00:39:29.905Z,8.00
2023-02-26T00:43:38.800Z,8.96
2023-02-26T00:47:51.856Z,9.38
2023-02-26T00:51:59.862Z,7.70
2023-02-26T00:55:57.813Z,6.26
2023-02-26T00:59:56.837Z,6.58
2023-02-26T01:03:54.832Z,8.28
2023-02-26T01:08:11.788Z,9.04
2023-02-26T01:12:11.811Z,8.72
2023-02-26T01:16:16.829Z,6.80
2023-02-26T01:20:28.826Z,6.57
2023-02-26T01:24:31.792Z,7.82
2023-02-26T01:28:29.771Z,8.40
2023-02-26T01:32:36.759Z,8.51
2023-02-26T01:36:36.795Z,6.70
2023-02-26T01:41:05.750Z,5.40
2023-02-26T01:45:16.087Z,7.06
2023-02-26T01:49:13.724Z,7.80
2023-02-26T01:53:36.717Z,7.93
2023-02-26T01:57:36.723Z,8.86
2023-02-26T02:01:34.751Z,9.19
2023-02-26T02:05:44.733Z,7.36
2023-02-26T02:09:42.752Z,5.68
2023-02-26T02:13:55.699Z,6.55
2023-02-26T02:18:04.726Z,8.10
2023-02-26T02:22:22.913Z,9.08
2023-02-26T02:27:07.701Z,8.41
2023-02-26T02:31:31.781Z,6.27
2023-02-26T02:35:38.714Z,5.71
2023-02-26T02:39:44.785Z,7.60
2023-02-26T02:43:46.679Z,8.32
2023-02-26T02:47:49.660Z,8.53
2023-02-26T02:51:52.209Z,8.60
2023-02-26T02:55:58.649Z,6.17
2023-02-26T03:00:01.629Z,6.32
2023-02-26T03:04:23.710Z,6.92
2023-02-26T03:08:26.659Z,7.97
2023-02-26T03:12:24.596Z,5.99
2023-02-26T03:16:42.760Z,6.02
2023-02-26T03:20:41.686Z,7.08
2023-02-26T03:25:36.692Z,8.03
2023-02-26T03:29:58.573Z,6.50
2023-02-26T03:34:14.584Z,5.62
2023-02-26T03:38:19.580Z,7.05
2023-02-26T03:42:24.613Z,7.77
2023-02-26T03:46:29.591Z,5.96
2023-02-26T03:50:32.674Z,5.64
2023-02-26T03:55:28.573Z,5.80
2023-02-26T03:59:35.633Z,6.76
2023-02-26T04:04:02.605Z,5.08
2023-02-26T04:08:02.601Z,5.81
2023-02-26T04:12:02.589Z,6.87
2023-02-26T04:16:02.589Z,7.55
2023-02-26T04:20:01.524Z,6.19
2023-02-26T04:23:59.551Z,4.77
2023-02-26T04:27:58.722Z,5.81
2023-02-26T04:31:56.723Z,5.97
2023-02-26T04:35:54.517Z,5.61
2023-02-26T04:39:52.553Z,5.87
2023-02-26T04:43:50.491Z,6.02
2023-02-26T04:47:54.550Z,6.44
2023-02-26T04:51:52.549Z,6.50
2023-02-26T04:55:52.322Z,6.97
2023-02-26T04:59:50.473Z,4.94
2023-02-26T05:03:51.592Z,4.94
2023-02-26T05:07:49.482Z,6.42
2023-02-26T05:11:47.496Z,7.27
2023-02-26T05:15:45.471Z,6.58
2023-02-26T05:19:43.469Z,4.54
2023-02-26T05:23:41.552Z,4.55
2023-02-26T05:27:39.571Z,6.05
2023-02-26T05:31:37.559Z,7.23
2023-02-26T05:35:35.458Z,4.74
2023-02-26T05:39:33.499Z,5.53
2023-02-26T05:43:31.593Z,6.47
2023-02-26T05:47:29.458Z,4.29
2023-02-26T05:51:27.437Z,4.78
2023-02-26T05:55:25.523Z,5.89
2023-02-26T05:59:23.507Z,4.25
2023-02-26T06:03:21.550Z,4.54
2023-02-26T06:07:19.470Z,6.03
2023-02-26T06:11:17.408Z,4.79
2023-02-26T06:15:15.365Z,4.03
2023-02-26T06:19:13.490Z,5.76
2023-02-26T06:23:11.385Z,6.51
2023-02-26T06:27:09.355Z,4.23
2023-02-26T06:31:08.395Z,3.81
2023-02-26T06:35:06.354Z,5.61
2023-02-26T06:39:05.348Z,6.94
2023-02-26T06:43:03.379Z,5.72
2023-02-26T06:47:01.395Z,3.90
2023-02-26T06:50:59.316Z,4.98
2023-02-26T06:54:57.335Z,6.30
2023-02-26T06:58:55.346Z,5.36
2023-02-26T07:02:53.415Z,4.01
2023-02-26T07:06:51.353Z,5.02
2023-02-26T07:10:50.435Z,6.42
2023-02-26T07:14:49.297Z,5.59
2023-02-26T07:18:47.328Z,3.74
2023-02-26T07:22:45.353Z,5.18
2023-02-26T07:26:43.271Z,6.11
2023-02-26T07:30:41.294Z,4.54
2023-02-26T07:34:39.333Z,3.67
2023-02-26T07:38:37.289Z,5.53
2023-02-26T07:42:35.351Z,5.06
2023-02-26T07:46:33.323Z,3.64
2023-02-26T07:50:31.276Z,4.64
2023-02-26T07:54:29.435Z,5.31
2023-02-26T07:58:27.272Z,4.30
2023-02-26T08:02:26.225Z,3.86
2023-02-26T08:06:24.610Z,5.15
2023-02-26T08:10:24.205Z,6.42
2023-02-26T08:14:22.256Z,4.06
2023-02-26T08:18:20.203Z,4.83
2023-02-26T08:22:18.270Z,4.22
2023-02-26T08:26:22.191Z,3.75
2023-02-26T08:30:20.176Z,5.61
2023-02-26T08:34:18.209Z,4.81
2023-02-26T08:38:17.119Z,3.59
2023-02-26T08:42:15.131Z,4.96
2023-02-26T08:46:13.285Z,6.12
2023-02-26T08:50:11.196Z,3.72
2023-02-26T08:54:09.177Z,4.25
2023-02-26T08:58:08.144Z,5.54
2023-02-26T09:02:06.212Z,3.90
2023-02-26T09:06:06.137Z,4.37
2023-02-26T09:10:04.137Z,3.24
2023-02-26T09:14:02.209Z,4.14
2023-02-26T09:18:00.190Z,2.82
2023-02-26T09:21:58.131Z,4.00
2023-02-26T09:25:56.210Z,2.56
2023-02-26T09:29:54.076Z,3.94
2023-02-26T09:33:52.115Z,4.37
2023-02-26T09:37:52.150Z,2.37
2023-02-26T09:42:01.094Z,3.22
2023-02-26T09:46:01.137Z,3.08
2023-02-26T09:49:59.088Z,2.50
2023-02-26T09:53:58.066Z,3.22
2023-02-26T09:58:01.102Z,4.45
2023-02-26T10:02:15.059Z,2.89
2023-02-26T10:06:32.085Z,2.14
2023-02-26T10:10:42.055Z,4.45
2023-02-26T10:14:45.194Z,2.96
2023-02-26T10:18:50.025Z,2.29
2023-02-26T10:23:09.048Z,3.13
2023-02-26T10:27:20.006Z,2.94
2023-02-26T10:31:31.154Z,2.99
2023-02-26T10:35:33.000Z,3.45
2023-02-26T10:39:39.064Z,4.33
2023-02-26T10:43:57.050Z,3.16
2023-02-26T10:48:16.071Z,2.01
2023-02-26T10:52:26.006Z,4.50
2023-02-26T10:56:29.987Z,3.03
2023-02-26T11:00:35.054Z,1.75
2023-02-26T11:04:38.048Z,3.57
2023-02-26T11:08:44.968Z,2.62
2023-02-26T11:12:43.005Z,1.79
2023-02-26T11:16:40.982Z,3.62
2023-02-26T11:20:47.989Z,2.57
2023-02-26T11:24:59.078Z,1.52
2023-02-26T11:29:02.981Z,3.38
2023-02-26T11:33:05.916Z,4.06
2023-02-26T11:37:04.944Z,2.51
2023-02-26T11:41:06.898Z,2.14
2023-02-26T11:45:05.960Z,4.09
2023-02-26T11:49:04.966Z,2.88
2023-02-26T11:53:13.905Z,1.84
2023-02-26T11:57:21.899Z,4.07
2023-02-26T12:01:23.055Z,3.82
2023-02-26T12:05:21.947Z,2.12
2023-02-26T12:09:26.909Z,2.86
2023-02-26T12:13:54.890Z,4.43
2023-02-26T12:18:04.936Z,2.52
2023-02-26T12:22:14.898Z,2.64
2023-02-26T12:26:32.945Z,4.20
2023-02-26T12:30:53.936Z,2.42
2023-02-26T12:35:01.920Z,3.39
2023-02-26T12:39:13.895Z,5.17
2023-02-26T12:43:22.824Z,3.13
2023-02-26T12:47:47.808Z,2.66
2023-02-26T12:52:00.893Z,4.58
2023-02-26T12:56:16.841Z,3.71
2023-02-26T13:00:51.966Z,2.48
2023-02-26T13:05:05.796Z,4.25
2023-02-26T13:09:12.857Z,3.16
2023-02-26T13:13:27.839Z,2.43
2023-02-26T13:17:33.823Z,4.53
2023-02-26T13:21:41.817Z,2.84
2023-02-26T13:25:57.807Z,3.40
2023-02-26T13:30:18.772Z,5.10
2023-02-26T13:34:21.777Z,3.44
2023-02-26T13:38:40.771Z,2.97
2023-02-26T13:42:44.822Z,4.96
2023-02-26T13:47:17.722Z,4.37
2023-02-26T13:51:24.221Z,2.35
2023-02-26T13:56:00.782Z,3.62
2023-02-26T14:00:00.259Z,4.80
2023-02-26T14:04:06.747Z,3.26
2023-02-26T14:08:22.733Z,3.03
2023-02-26T14:12:29.764Z,5.44
2023-02-26T14:16:37.807Z,3.71
2023-02-26T14:20:40.680Z,2.40
2023-02-26T14:24:50.693Z,4.94
2023-02-26T14:28:49.835Z,3.30
2023-02-26T14:33:12.697Z,2.37
2023-02-26T14:37:23.713Z,4.48
2023-02-26T14:41:33.744Z,2.97
2023-02-26T14:45:31.733Z,2.35
2023-02-26T14:49:37.712Z,4.14
2023-02-26T14:54:02.585Z,2.65
2023-02-26T14:58:10.720Z,2.69
2023-02-26T15:02:25.903Z,4.19
2023-02-26T15:06:54.652Z,2.61
2023-02-26T15:10:58.725Z,1.77
2023-02-26T15:15:03.627Z,3.76
2023-02-26T15:19:23.568Z,2.22
2023-02-26T15:23:42.739Z,2.78
2023-02-26T15:27:40.566Z,3.14
2023-02-26T15:31:57.846Z,2.52
2023-02-26T15:35:58.570Z,2.07
2023-02-26T15:39:56.576Z,1.99
2023-02-26T15:43:58.594Z,1.92
2023-02-26T15:47:56.617Z,1.88
2023-02-26T15:51:55.545Z,2.00
2023-02-26T15:56:00.625Z,1.94
2023-02-26T16:00:02.518Z,1.75
2023-02-26T16:04:06.538Z,1.48
2023-02-26T16:08:04.501Z,1.46
2023-02-26T16:12:04.561Z,1.45
2023-02-26T16:16:02.595Z,1.11
2023-02-26T16:20:03.534Z,1.18
2023-02-26T16:24:05.482Z,1.17
2023-02-26T16:28:11.627Z,0.87
2023-02-26T16:32:12.684Z,1.15
2023-02-26T16:36:18.506Z,1.06
2023-02-26T16:40:42.608Z,0.72
2023-02-26T16:44:45.548Z,0.54
2023-02-26T16:48:52.630Z,0.35
2023-02-26T16:52:50.586Z,0.61
2023-02-26T16:56:56.448Z,0.58
2023-02-26T17:00:54.544Z,0.72
2023-02-26T17:04:53.541Z,0.96
2023-02-26T17:09:07.509Z,1.35
2023-02-26T17:13:08.405Z,1.49
2023-02-26T17:17:06.428Z,1.36
2023-02-26T17:21:04.441Z,1.16
2023-02-26T17:25:02.530Z,0.98
2023-02-26T17:29:02.352Z,0.74
2023-02-26T17:33:00.496Z,0.87
2023-02-26T17:36:58.416Z,1.04
2023-02-26T17:41:01.465Z,0.94
2023-02-26T17:45:01.495Z,0.91
2023-02-26T17:48:59.381Z,0.85
2023-02-26T17:52:57.561Z,2.11
2023-02-26T17:56:56.560Z,3.90
2023-02-26T18:00:56.882Z,4.74
2023-02-26T18:04:56.875Z,3.28
2023-02-26T18:08:56.552Z,1.96
2023-02-26T18:12:54.350Z,2.03
2023-02-26T18:16:55.395Z,2.90
2023-02-26T18:20:53.379Z,3.02
2023-02-26T18:24:51.373Z,1.66
2023-02-26T18:28:49.397Z,1.19
2023-02-26T18:32:47.418Z,1.52
2023-02-26T18:36:48.362Z,1.73
2023-02-26T18:40:46.301Z,1.68
2023-02-26T18:44:45.327Z,1.47
2023-02-26T18:48:43.388Z,1.38
2023-02-26T18:52:43.416Z,1.40
2023-02-26T18:56:42.309Z,1.90
2023-02-26T19:00:40.452Z,2.04
2023-02-26T19:04:38.255Z,1.83
2023-02-26T19:08:37.459Z,1.45
2023-02-26T19:12:36.285Z,1.28
2023-02-26T19:16:34.322Z,1.38
2023-02-26T19:20:32.312Z,1.80
2023-02-26T19:24:30.428Z,2.01
2023-02-26T19:28:28.257Z,2.12
2023-02-26T19:32:26.587Z,1.74
2023-02-26T19:36:24.267Z,1.39
2023-02-26T19:40:23.315Z,1.27
2023-02-26T19:44:21.340Z,0.54
2023-02-26T19:48:19.517Z,-0.04
2023-02-26T19:52:17.195Z,-0.31
2023-02-26T19:56:20.400Z,-0.46
2023-02-26T20:00:19.231Z,-0.58
2023-02-26T20:04:17.233Z,-0.68
2023-02-26T20:08:15.181Z,-0.77
2023-02-26T20:12:13.237Z,-0.83
2023-02-26T20:16:14.439Z,-0.64
2023-02-26T20:20:12.158Z,1.50
2023-02-26T20:24:12.280Z,0.53
2023-02-26T20:28:10.166Z,-0.22
2023-02-26T20:32:08.206Z,-0.58
2023-02-26T20:36:06.164Z,-0.80
2023-02-26T20:40:05.093Z,-0.06
2023-02-26T20:44:03.149Z,1.00
2023-02-26T20:48:02.107Z,0.19
2023-02-26T20:52:00.180Z,-0.34
2023-02-26T20:55:58.271Z,-0.59
2023-02-26T20:59:56.117Z,-0.77
2023-02-26T21:03:54.122Z,-0.28
2023-02-26T21:07:54.172Z,1.10
2023-02-26T21:11:54.077Z,0.43
2023-02-26T21:15:52.122Z,-0.24
2023-02-26T21:20:12.114Z,-0.58
2023-02-26T21:24:10.139Z,-0.39
2023-02-26T21:28:08.040Z,0.87
2023-02-26T21:32:10.194Z,0.47
2023-02-26T21:36:08.161Z,-0.17
2023-02-26T21:40:06.052Z,-0.52
2023-02-26T21:44:06.248Z,-0.46
2023-02-26T21:48:04.141Z,0.47
2023-02-26T21:52:02.041Z,0.78
2023-02-26T21:56:00.107Z,0.09
2023-02-26T21:59:58.079Z,-0.36
2023-02-26T22:04:03.121Z,-0.61
2023-02-26T22:08:02.036Z,-0.79
2023-02-26T22:12:00.969Z,-0.63
2023-02-26T22:15:58.951Z,0.01
2023-02-26T22:19:56.996Z,0.56
2023-02-26T22:23:55.181Z,0.73
2023-02-26T22:27:52.978Z,0.91
2023-02-26T22:31:51.175Z,1.28
2023-02-26T22:35:48.951Z,1.20
2023-02-26T22:39:47.082Z,0.39
2023-02-26T22:43:45.061Z,-0.15
2023-02-26T22:47:42.947Z,-0.26
2023-02-26T22:51:40.922Z,0.19
2023-02-26T22:55:38.951Z,0.51
2023-02-26T22:59:36.939Z,0.74
2023-02-26T23:03:35.090Z,1.04
2023-02-26T23:07:32.941Z,1.18
2023-02-26T23:11:30.936Z,0.75
2023-02-26T23:15:29.962Z,0.20
2023-02-26T23:19:27.893Z,-0.24
2023-02-26T23:23:25.940Z,-0.48
2023-02-26T23:27:23.960Z,-0.42
2023-02-26T23:31:22.130Z,0.30
2023-02-26T23:35:19.875Z,0.89
2023-02-26T23:39:19.951Z,1.00
2023-02-26T23:43:17.823Z,1.10
2023-02-26T23:47:15.881Z,1.00
2023-02-26T23:51:13.848Z,0.83
2023-02-26T23:55:11.832Z,0.83
2023-02-26T23:59:09.833Z,0.92
